createdAt,value
2022-08-17T00:00:02.812Z,0
2022-08-17T00:15:10.420Z,0
2022-08-17T00:30:06.870Z,0
2022-08-17T00:45:00.656Z,0
2022-08-17T01:00:05.046Z,0
2022-08-17T01:15:04.823Z,0
2022-08-17T01:30:06.183Z,0
2022-08-17T01:45:03.971Z,0
2022-08-17T02:00:05.634Z,0
2022-08-17T02:15:03.886Z,0
2022-08-17T02:31:02.027Z,0
2022-08-17T02:45:04.816Z,0
2022-08-17T03:00:03.042Z,0
2022-08-17T03:15:04.285Z,0
2022-08-17T03:30:05.519Z,0
2022-08-17T03:45:03.848Z,0
2022-08-17T04:00:05.045Z,0
2022-08-17T04:15:06.364Z,2
2022-08-17T04:30:04.635Z,10
2022-08-17T04:45:10.104Z,25
2022-08-17T05:00:05.518Z,57
2022-08-17T05:15:00.664Z,96
2022-08-17T05:30:04.897Z,139
2022-08-17T05:45:06.096Z,180
2022-08-17T06:00:01.247Z,221
2022-08-17T06:15:05.521Z,262
2022-08-17T06:30:06.603Z,303
2022-08-17T06:45:01.782Z,343
2022-08-17T07:00:02.894Z,384
2022-08-17T07:15:02.558Z,423
2022-08-17T07:30:00.771Z,463
2022-08-17T07:45:05.073Z,501
2022-08-17T08:00:07.763Z,538
2022-08-17T08:15:02.913Z,572
2022-08-17T08:30:08.693Z,605
2022-08-17T08:45:08.443Z,634
2022-08-17T09:00:05.190Z,662
2022-08-17T09:15:01.926Z,688
2022-08-17T09:30:00.267Z,714
2022-08-17T09:45:01.466Z,734
2022-08-17T10:00:05.659Z,748
2022-08-17T10:15:07.919Z,764
2022-08-17T10:30:06.703Z,775
2022-08-17T10:45:06.452Z,782
2022-08-17T11:00:03.149Z,786
2022-08-17T11:15:01.285Z,785
2022-08-17T11:30:03.083Z,796
2022-08-17T11:45:03.790Z,797
2022-08-17T12:00:02.088Z,755
2022-08-17T12:15:10.926Z,745
2022-08-17T12:30:03.065Z,759
2022-08-17T12:45:38.673Z,676
2022-08-17T13:00:00.781Z,712
2022-08-17T13:15:05.081Z,610
2022-08-17T13:30:03.278Z,638
2022-08-17T13:45:01.508Z,423
2022-08-17T14:00:02.732Z,476
2022-08-17T14:15:03.971Z,667
2022-08-17T14:30:00.633Z,515
2022-08-17T14:45:04.776Z,266
2022-08-17T15:00:06.005Z,506
2022-08-17T15:15:01.202Z,415
2022-08-17T15:30:03.882Z,456
2022-08-17T15:45:05.003Z,364
2022-08-17T16:00:04.613Z,205
2022-08-17T16:15:01.313Z,146
2022-08-17T16:30:03.884Z,211
2022-08-17T16:45:08.136Z,186
2022-08-17T17:00:04.848Z,98
2022-08-17T17:15:00.129Z,45
2022-08-17T17:30:05.908Z,25
2022-08-17T17:45:01.098Z,17
2022-08-17T18:00:03.882Z,10
2022-08-17T18:15:08.119Z,1
2022-08-17T18:30:09.166Z,0
2022-08-17T18:45:00.020Z,0
2022-08-17T19:00:05.596Z,0
2022-08-17T19:15:00.825Z,0
2022-08-17T19:30:08.610Z,0
2022-08-17T19:45:00.218Z,0
2022-08-17T20:00:05.592Z,0
2022-08-17T20:15:08.287Z,0
2022-08-17T20:30:03.459Z,0
2022-08-17T20:45:06.796Z,0
2022-08-17T21:00:08.555Z,0
2022-08-17T21:15:01.608Z,0
2022-08-17T21:30:05.154Z,0
2022-08-17T21:45:02.162Z,0
2022-08-17T22:00:04.973Z,0
2022-08-17T22:15:01.717Z,0
2022-08-17T22:30:34.474Z,0
2022-08-17T22:45:07.105Z,0
2022-08-17T23:00:02.334Z,0
2022-08-17T23:15:02.130Z,0
2022-08-17T23:30:03.385Z,0
2022-08-17T23:45:03.103Z,0
